createdAt,value
2023-01-22T00:01:25.636Z,14.97
2023-01-22T00:03:55.602Z,14.97
2023-01-22T00:06:24.608Z,14.99
2023-01-22T00:08:53.496Z,15.01
2023-01-22T00:11:22.100Z,15.03
2023-01-22T00:13:50.457Z,15.08
2023-01-22T00:16:19.506Z,15.09
2023-01-22T00:18:47.991Z,15.13
2023-01-22T00:21:16.340Z,15.19
2023-01-22T00:23:44.612Z,15.25
2023-01-22T00:26:18.389Z,15.29
2023-01-22T00:28:46.708Z,15.34
2023-01-22T00:31:17.439Z,15.39
2023-01-22T00:33:47.275Z,15.44
2023-01-22T00:36:18.987Z,15.50
2023-01-22T00:38:47.685Z,15.55
2023-01-22T00:41:17.546Z,15.62
2023-01-22T00:43:46.057Z,15.70
2023-01-22T00:46:16.999Z,15.76
2023-01-22T00:48:50.611Z,15.84
2023-01-22T00:51:19.173Z,15.92
2023-01-22T00:53:47.705Z,15.99
2023-01-22T00:56:16.433Z,16.06
2023-01-22T00:58:44.881Z,16.14
2023-01-22T01:01:15.456Z,16.23
2023-01-22T01:03:44.079Z,16.31
2023-01-22T01:06:20.701Z,16.40
2023-01-22T01:08:50.605Z,16.49
2023-01-22T01:11:27.014Z,16.57
2023-01-22T01:13:55.552Z,16.68
2023-01-22T01:16:32.328Z,16.79
2023-01-22T01:19:07.016Z,16.91
2023-01-22T01:21:36.601Z,16.98
2023-01-22T01:24:05.221Z,17.07
2023-01-22T01:26:35.696Z,17.16
2023-01-22T01:29:05.782Z,17.27
2023-01-22T01:31:34.144Z,17.37
2023-01-22T01:34:02.542Z,17.46
2023-01-22T01:36:47.619Z,17.57
2023-01-22T01:39:16.984Z,17.70
2023-01-22T01:41:45.294Z,17.81
2023-01-22T01:44:16.813Z,17.91
2023-01-22T01:46:55.209Z,18.02
2023-01-22T01:49:31.300Z,18.12
2023-01-22T01:52:03.106Z,18.20
2023-01-22T01:54:32.608Z,18.29
2023-01-22T01:57:10.400Z,18.37
2023-01-22T01:59:40.380Z,18.46
2023-01-22T02:02:12.430Z,18.56
2023-01-22T02:04:40.777Z,18.68
2023-01-22T02:07:09.249Z,18.78
2023-01-22T02:09:37.725Z,18.90
2023-01-22T02:12:06.337Z,19.01
2023-01-22T02:14:38.772Z,19.14
2023-01-22T02:17:13.681Z,19.27
2023-01-22T02:19:42.863Z,19.38
2023-01-22T02:22:25.105Z,19.51
2023-01-22T02:24:53.432Z,19.63
2023-01-22T02:27:22.057Z,19.77
2023-01-22T02:29:51.083Z,19.88
2023-01-22T02:32:19.487Z,19.99
2023-01-22T02:34:47.782Z,20.10
2023-01-22T02:37:16.088Z,20.22
2023-01-22T02:39:44.459Z,20.32
2023-01-22T02:42:12.884Z,20.44
2023-01-22T02:44:41.177Z,20.56
2023-01-22T02:47:09.511Z,20.72
2023-01-22T02:49:37.882Z,20.85
2023-01-22T02:52:06.190Z,20.98
2023-01-22T02:54:34.493Z,21.10
2023-01-22T02:57:02.888Z,21.19
2023-01-22T02:59:31.237Z,21.29
2023-01-22T03:01:59.641Z,21.40
2023-01-22T03:04:29.753Z,21.54
2023-01-22T03:06:58.098Z,21.66
2023-01-22T03:09:26.384Z,21.77
2023-01-22T03:11:54.687Z,21.88
2023-01-22T03:14:41.291Z,22.00
2023-01-22T03:17:28.566Z,22.10
2023-01-22T03:20:15.182Z,22.22
2023-01-22T03:22:43.664Z,22.30
2023-01-22T03:25:12.048Z,22.41
2023-01-22T03:28:03.007Z,22.50
2023-01-22T03:30:31.333Z,22.60
2023-01-22T03:32:59.605Z,22.67
2023-01-22T03:35:27.896Z,22.74
2023-01-22T03:37:56.215Z,22.80
2023-01-22T03:40:24.479Z,22.89
2023-01-22T03:42:54.458Z,22.99
2023-01-22T03:45:22.771Z,23.10
2023-01-22T03:47:52.240Z,23.24
2023-01-22T03:50:20.576Z,23.33
2023-01-22T03:52:48.858Z,23.42
2023-01-22T03:55:17.871Z,23.51
2023-01-22T03:57:46.208Z,23.60
2023-01-22T04:00:15.101Z,23.70
2023-01-22T04:02:43.502Z,23.82
2023-01-22T04:05:11.836Z,23.89
2023-01-22T04:07:40.131Z,23.98
2023-01-22T04:10:09.243Z,24.04
2023-01-22T04:12:37.500Z,24.13
2023-01-22T04:15:06.252Z,24.19
2023-01-22T04:17:34.537Z,24.26
2023-01-22T04:20:02.939Z,24.31
2023-01-22T04:22:31.224Z,24.40
2023-01-22T04:24:59.510Z,24.48
2023-01-22T04:27:27.843Z,24.55
2023-01-22T04:29:56.122Z,24.60
2023-01-22T04:32:24.442Z,24.67
2023-01-22T04:34:52.765Z,24.74
2023-01-22T04:37:21.049Z,24.81
2023-01-22T04:39:49.356Z,24.88
2023-01-22T04:42:17.642Z,24.94
2023-01-22T04:44:45.922Z,25.01
2023-01-22T04:47:14.236Z,25.07
2023-01-22T04:49:42.609Z,25.16
2023-01-22T04:52:10.922Z,25.24
2023-01-22T04:54:39.238Z,25.35
2023-01-22T04:57:07.696Z,25.43
2023-01-22T04:59:36.052Z,25.51
2023-01-22T05:02:05.066Z,25.60
2023-01-22T05:04:33.373Z,25.69
2023-01-22T05:07:01.716Z,25.78
2023-01-22T05:09:30.001Z,25.89
2023-01-22T05:11:58.275Z,26.00
2023-01-22T05:14:26.677Z,26.08
2023-01-22T05:16:54.961Z,26.15
2023-01-22T05:19:23.365Z,26.23
2023-01-22T05:21:51.783Z,26.33
2023-01-22T05:24:20.084Z,26.39
2023-01-22T05:26:48.369Z,26.46
2023-01-22T05:29:16.682Z,26.54
2023-01-22T05:31:45.083Z,26.61
2023-01-22T05:34:13.403Z,26.67
2023-01-22T05:36:41.724Z,26.73
2023-01-22T05:39:10.062Z,26.84
2023-01-22T05:41:38.522Z,26.92
2023-01-22T05:44:07.536Z,26.96
2023-01-22T05:46:35.832Z,27.01
2023-01-22T05:49:04.299Z,27.09
2023-01-22T05:51:32.978Z,27.15
2023-01-22T05:54:01.682Z,27.24
2023-01-22T05:56:30.103Z,27.32
2023-01-22T05:58:58.738Z,27.39
2023-01-22T06:01:27.413Z,27.44
2023-01-22T06:03:55.713Z,27.49
2023-01-22T06:06:24.151Z,27.53
2023-01-22T06:08:53.728Z,27.56
2023-01-22T06:11:22.155Z,27.57
2023-01-22T06:13:50.545Z,27.59
2023-01-22T06:16:18.965Z,27.62
2023-01-22T06:18:47.277Z,27.62
2023-01-22T06:21:15.571Z,27.65
2023-01-22T06:23:43.875Z,27.67
2023-01-22T06:26:12.172Z,27.74
2023-01-22T06:28:40.456Z,27.82
2023-01-22T06:31:08.838Z,27.91
2023-01-22T06:33:39.053Z,27.98
2023-01-22T06:36:07.935Z,28.08
2023-01-22T06:38:37.402Z,28.15
2023-01-22T06:41:06.070Z,28.22
2023-01-22T06:43:34.459Z,28.26
2023-01-22T06:46:05.295Z,28.25
2023-01-22T06:48:33.902Z,28.26
2023-01-22T06:51:02.908Z,28.29
2023-01-22T06:53:31.224Z,28.29
2023-01-22T06:56:03.299Z,28.34
2023-01-22T06:58:32.034Z,28.37
2023-01-22T07:01:04.196Z,28.43
2023-01-22T07:03:32.892Z,28.46
2023-01-22T07:06:03.709Z,28.45
2023-01-22T07:08:33.990Z,28.47
2023-01-22T07:11:02.815Z,28.50
2023-01-22T07:13:31.269Z,28.55
2023-01-22T07:16:04.614Z,28.58
2023-01-22T07:18:33.248Z,28.58
2023-01-22T07:21:03.336Z,28.60
2023-01-22T07:23:31.997Z,28.63
2023-01-22T07:26:00.706Z,28.65
2023-01-22T07:28:29.117Z,28.66
2023-01-22T07:30:58.129Z,28.63
2023-01-22T07:33:26.593Z,28.63
2023-01-22T07:35:57.436Z,28.63
2023-01-22T07:38:28.773Z,28.67
2023-01-22T07:41:13.931Z,28.71
2023-01-22T07:43:53.554Z,28.76
2023-01-22T07:46:22.067Z,28.79
2023-01-22T07:48:50.364Z,28.79
2023-01-22T07:51:18.805Z,28.86
2023-01-22T07:53:47.365Z,28.90
2023-01-22T07:56:15.681Z,28.93
2023-01-22T07:58:43.989Z,28.96
2023-01-22T08:01:12.502Z,28.97
2023-01-22T08:03:41.001Z,28.96
2023-01-22T08:06:14.238Z,28.97
2023-01-22T08:08:43.562Z,28.98
2023-01-22T08:11:11.840Z,29.00
2023-01-22T08:13:40.343Z,29.02
2023-01-22T08:16:10.352Z,29.03
2023-01-22T08:18:39.310Z,29.05
2023-01-22T08:21:07.896Z,29.07
2023-01-22T08:23:36.418Z,29.06
2023-01-22T08:26:05.502Z,29.06
2023-01-22T08:28:33.870Z,29.09
2023-01-22T08:31:04.288Z,29.08
2023-01-22T08:33:34.629Z,29.04
2023-01-22T08:36:02.972Z,29.03
2023-01-22T08:38:31.360Z,29.03
2023-01-22T08:40:59.666Z,29.04
2023-01-22T08:43:28.018Z,29.06
2023-01-22T08:45:56.393Z,29.08
2023-01-22T08:48:24.720Z,29.11
2023-01-22T08:50:53.045Z,29.12
2023-01-22T08:53:21.355Z,29.15
2023-01-22T08:55:52.844Z,29.16
2023-01-22T08:58:23.069Z,29.17
2023-01-22T09:00:51.404Z,29.17
2023-01-22T09:03:19.780Z,29.14
2023-01-22T09:05:48.458Z,29.16
2023-01-22T09:08:16.771Z,29.14
2023-01-22T09:10:45.938Z,29.13
2023-01-22T09:13:14.269Z,29.11
2023-01-22T09:15:42.681Z,29.09
2023-01-22T09:18:11.471Z,29.06
2023-01-22T09:20:39.741Z,29.04
2023-01-22T09:23:08.417Z,29.01
2023-01-22T09:25:37.133Z,28.97
2023-01-22T09:28:08.139Z,28.93
2023-01-22T09:30:40.284Z,28.90
2023-01-22T09:33:08.712Z,28.84
2023-01-22T09:35:37.010Z,28.82
2023-01-22T09:38:06.666Z,28.79
2023-01-22T09:40:52.318Z,28.77
2023-01-22T09:43:29.738Z,28.72
2023-01-22T09:46:01.770Z,28.65
2023-01-22T09:48:44.897Z,28.56
2023-01-22T09:51:18.104Z,28.45
2023-01-22T09:53:54.267Z,28.36
2023-01-22T09:56:27.321Z,28.27
2023-01-22T09:58:57.615Z,28.17
2023-01-22T10:01:27.799Z,28.06
2023-01-22T10:04:04.185Z,27.96
2023-01-22T10:06:32.704Z,27.84
2023-01-22T10:09:20.583Z,27.74
2023-01-22T10:11:55.222Z,27.61
2023-01-22T10:14:27.875Z,27.50
2023-01-22T10:16:59.884Z,27.39
2023-01-22T10:19:39.748Z,27.28
2023-01-22T10:22:15.376Z,27.16
2023-01-22T10:24:43.634Z,27.05
2023-01-22T10:27:17.336Z,26.95
2023-01-22T10:30:03.337Z,26.83
2023-01-22T10:32:33.244Z,26.73
2023-01-22T10:35:02.992Z,26.63
2023-01-22T10:37:31.999Z,26.51
2023-01-22T10:40:01.479Z,26.40
2023-01-22T10:42:30.913Z,26.29
2023-01-22T10:45:12.616Z,26.18
2023-01-22T10:47:40.921Z,26.07
2023-01-22T10:50:19.007Z,25.92
2023-01-22T10:52:56.115Z,25.78
2023-01-22T10:55:32.286Z,25.65
2023-01-22T10:58:06.523Z,25.53
2023-01-22T11:00:51.207Z,25.41
2023-01-22T11:03:40.463Z,25.30
2023-01-22T11:06:25.588Z,25.18
2023-01-22T11:09:02.901Z,25.06
2023-01-22T11:11:39.367Z,24.92
2023-01-22T11:14:24.633Z,24.78
2023-01-22T11:16:55.293Z,24.67
2023-01-22T11:19:37.240Z,24.53
2023-01-22T11:22:16.065Z,24.41
2023-01-22T11:24:48.226Z,24.28
2023-01-22T11:27:27.038Z,24.17
2023-01-22T11:30:15.972Z,24.04
2023-01-22T11:32:57.932Z,23.94
2023-01-22T11:35:35.078Z,23.83
2023-01-22T11:38:15.183Z,23.73
2023-01-22T11:40:55.728Z,23.64
2023-01-22T11:43:56.629Z,23.51
2023-01-22T11:47:05.877Z,23.38
2023-01-22T11:49:40.179Z,23.27
2023-01-22T11:52:23.376Z,23.18
2023-01-22T11:55:02.495Z,23.09
2023-01-22T11:57:52.462Z,22.97
2023-01-22T12:00:29.026Z,22.89
2023-01-22T12:03:26.199Z,22.81
2023-01-22T12:06:14.061Z,22.72
2023-01-22T12:09:07.408Z,22.64
2023-01-22T12:11:53.718Z,22.58
2023-01-22T12:14:30.029Z,22.49
2023-01-22T12:17:39.510Z,22.42
2023-01-22T12:20:32.091Z,22.34
2023-01-22T12:23:27.283Z,22.25
2023-01-22T12:26:04.320Z,22.18
2023-01-22T12:28:55.703Z,22.11
2023-01-22T12:31:43.916Z,22.08
2023-01-22T12:34:21.266Z,22.08
2023-01-22T12:36:50.504Z,22.05
2023-01-22T12:39:31.699Z,22.00
2023-01-22T12:42:44.569Z,21.95
2023-01-22T12:45:28.480Z,21.86
2023-01-22T12:48:11.821Z,21.78
2023-01-22T12:50:53.541Z,21.71
2023-01-22T12:53:31.326Z,21.65
2023-01-22T12:56:03.541Z,21.60
2023-01-22T12:58:38.050Z,21.55
2023-01-22T13:01:34.123Z,21.49
2023-01-22T13:04:07.671Z,21.44
2023-01-22T13:06:41.622Z,21.39
2023-01-22T13:09:30.056Z,21.32
2023-01-22T13:12:25.664Z,21.26
2023-01-22T13:14:55.040Z,21.21
2023-01-22T13:17:31.470Z,21.15
2023-01-22T13:20:00.232Z,21.09
2023-01-22T13:22:29.326Z,21.04
2023-01-22T13:24:59.549Z,20.98
2023-01-22T13:27:34.746Z,20.93
2023-01-22T13:30:15.706Z,20.88
2023-01-22T13:32:44.159Z,20.82
2023-01-22T13:35:19.790Z,20.77
2023-01-22T13:37:52.818Z,20.72
2023-01-22T13:40:25.768Z,20.67
2023-01-22T13:42:56.002Z,20.62
2023-01-22T13:45:28.085Z,20.58
2023-01-22T13:48:03.971Z,20.53
2023-01-22T13:50:33.653Z,20.51
2023-01-22T13:53:03.353Z,20.48
2023-01-22T13:55:32.029Z,20.46
2023-01-22T13:58:06.191Z,20.43
2023-01-22T14:00:37.365Z,20.39
2023-01-22T14:03:23.000Z,20.35
2023-01-22T14:05:51.278Z,20.33
2023-01-22T14:08:19.746Z,20.31
2023-01-22T14:10:58.600Z,20.28
2023-01-22T14:13:26.939Z,20.23
2023-01-22T14:16:01.040Z,20.20
2023-01-22T14:18:30.521Z,20.18
2023-01-22T14:20:58.806Z,20.14
2023-01-22T14:23:27.216Z,20.09
2023-01-22T14:25:58.631Z,20.04
2023-01-22T14:28:30.007Z,20.00
2023-01-22T14:30:58.370Z,19.98
2023-01-22T14:33:33.020Z,19.93
2023-01-22T14:36:01.647Z,19.88
2023-01-22T14:38:30.252Z,19.85
2023-01-22T14:40:58.575Z,19.79
2023-01-22T14:43:27.057Z,19.77
2023-01-22T14:45:55.993Z,19.73
2023-01-22T14:48:24.396Z,19.71
2023-01-22T14:50:52.844Z,19.69
2023-01-22T14:53:21.242Z,19.67
2023-01-22T14:55:49.620Z,19.65
2023-01-22T14:58:17.932Z,19.62
2023-01-22T15:00:46.210Z,19.58
2023-01-22T15:03:17.097Z,19.55
2023-01-22T15:05:46.159Z,19.52
2023-01-22T15:08:14.810Z,19.48
2023-01-22T15:10:43.122Z,19.42
2023-01-22T15:13:11.509Z,19.38
2023-01-22T15:15:39.851Z,19.34
2023-01-22T15:18:08.143Z,19.28
2023-01-22T15:20:36.825Z,19.22
2023-01-22T15:23:05.140Z,19.19
2023-01-22T15:25:33.442Z,19.14
2023-01-22T15:28:01.830Z,19.11
2023-01-22T15:30:30.624Z,19.08
2023-01-22T15:32:58.956Z,19.05
2023-01-22T15:35:27.313Z,19.01
2023-01-22T15:37:55.593Z,18.99
2023-01-22T15:40:23.980Z,18.95
2023-01-22T15:42:52.231Z,18.92
2023-01-22T15:45:20.509Z,18.90
2023-01-22T15:47:49.123Z,18.86
2023-01-22T15:50:21.153Z,18.84
2023-01-22T15:52:53.892Z,18.81
2023-01-22T15:55:22.606Z,18.81
2023-01-22T15:57:50.962Z,18.80
2023-01-22T16:00:19.931Z,18.77
2023-01-22T16:02:48.458Z,18.75
2023-01-22T16:05:16.838Z,18.72
2023-01-22T16:07:45.137Z,18.69
2023-01-22T16:10:13.420Z,18.68
2023-01-22T16:12:41.704Z,18.66
2023-01-22T16:15:11.162Z,18.62
2023-01-22T16:17:39.496Z,18.60
2023-01-22T16:20:08.726Z,18.58
2023-01-22T16:22:36.999Z,18.55
2023-01-22T16:25:05.485Z,18.51
2023-01-22T16:27:33.776Z,18.48
2023-01-22T16:30:02.297Z,18.45
2023-01-22T16:32:30.734Z,18.41
2023-01-22T16:34:59.011Z,18.39
2023-01-22T16:37:27.524Z,18.36
2023-01-22T16:39:55.771Z,18.32
2023-01-22T16:42:24.062Z,18.31
2023-01-22T16:44:52.389Z,18.27
2023-01-22T16:47:21.247Z,18.25
2023-01-22T16:49:49.844Z,18.22
2023-01-22T16:52:22.704Z,18.19
2023-01-22T16:54:51.711Z,18.16
2023-01-22T16:57:21.072Z,18.14
2023-01-22T16:59:49.445Z,18.11
2023-01-22T17:02:19.933Z,18.08
2023-01-22T17:04:48.441Z,18.06
2023-01-22T17:07:31.951Z,18.04
2023-01-22T17:10:01.954Z,18.01
2023-01-22T17:12:30.431Z,18.00
2023-01-22T17:14:59.020Z,17.99
2023-01-22T17:17:27.404Z,17.97
2023-01-22T17:19:55.935Z,17.96
2023-01-22T17:22:25.138Z,17.93
2023-01-22T17:24:53.619Z,17.91
2023-01-22T17:27:22.510Z,17.90
2023-01-22T17:29:50.811Z,17.89
2023-01-22T17:32:19.090Z,17.89
2023-01-22T17:34:47.602Z,17.88
2023-01-22T17:37:16.116Z,17.88
2023-01-22T17:39:46.980Z,17.88
2023-01-22T17:42:15.376Z,17.87
2023-01-22T17:44:43.666Z,17.86
2023-01-22T17:47:12.338Z,17.85
2023-01-22T17:49:40.749Z,17.83
2023-01-22T17:52:10.107Z,17.82
2023-01-22T17:54:39.179Z,17.80
2023-01-22T17:57:07.583Z,17.80
2023-01-22T17:59:35.917Z,17.77
2023-01-22T18:02:04.252Z,17.74
2023-01-22T18:04:35.385Z,17.72
2023-01-22T18:07:05.250Z,17.71
2023-01-22T18:09:33.616Z,17.69
2023-01-22T18:12:03.823Z,17.69
2023-01-22T18:14:34.868Z,17.67
2023-01-22T18:17:03.611Z,17.66
2023-01-22T18:19:32.141Z,17.63
2023-01-22T18:22:00.459Z,17.61
2023-01-22T18:24:32.051Z,17.57
2023-01-22T18:27:00.912Z,17.52
2023-01-22T18:29:29.737Z,17.51
2023-01-22T18:31:58.183Z,17.48
2023-01-22T18:34:26.646Z,17.46
2023-01-22T18:36:55.041Z,17.41
2023-01-22T18:39:23.802Z,17.39
2023-01-22T18:41:52.108Z,17.36
2023-01-22T18:44:20.852Z,17.34
2023-01-22T18:46:52.603Z,17.30
2023-01-22T18:49:20.897Z,17.27
2023-01-22T18:51:49.589Z,17.25
2023-01-22T18:54:18.518Z,17.23
2023-01-22T18:56:47.699Z,17.22
2023-01-22T18:59:16.047Z,17.18
2023-01-22T19:01:50.948Z,17.15
2023-01-22T19:04:22.646Z,17.13
2023-01-22T19:06:53.665Z,17.11
2023-01-22T19:09:22.361Z,17.09
2023-01-22T19:11:53.083Z,17.08
2023-01-22T19:14:22.121Z,17.07
2023-01-22T19:16:54.841Z,17.07
2023-01-22T19:19:24.048Z,17.06
2023-01-22T19:21:56.325Z,17.08
2023-01-22T19:24:27.498Z,17.09
2023-01-22T19:26:57.358Z,17.11
2023-01-22T19:29:26.920Z,17.14
2023-01-22T19:31:57.855Z,17.16
2023-01-22T19:34:27.206Z,17.17
2023-01-22T19:37:01.355Z,17.20
2023-01-22T19:39:30.257Z,17.20
2023-01-22T19:42:02.728Z,17.20
2023-01-22T19:44:32.782Z,17.19
2023-01-22T19:47:02.871Z,17.20
2023-01-22T19:49:31.398Z,17.18
2023-01-22T19:51:59.945Z,17.16
2023-01-22T19:54:28.308Z,17.15
2023-01-22T19:56:56.660Z,17.12
2023-01-22T19:59:25.683Z,17.10
2023-01-22T20:01:54.330Z,17.05
2023-01-22T20:04:30.578Z,17.02
2023-01-22T20:07:03.417Z,17.02
2023-01-22T20:09:32.175Z,16.99
2023-01-22T20:12:01.267Z,16.98
2023-01-22T20:14:34.979Z,16.94
2023-01-22T20:17:04.322Z,16.94
2023-01-22T20:19:33.170Z,16.91
2023-01-22T20:22:05.287Z,16.89
2023-01-22T20:24:33.904Z,16.86
2023-01-22T20:27:02.410Z,16.85
2023-01-22T20:29:30.935Z,16.82
2023-01-22T20:32:00.185Z,16.78
2023-01-22T20:34:28.666Z,16.76
2023-01-22T20:36:57.080Z,16.73
2023-01-22T20:39:25.374Z,16.72
2023-01-22T20:41:55.661Z,16.70
2023-01-22T20:44:24.530Z,16.69
2023-01-22T20:46:52.949Z,16.69
2023-01-22T20:49:21.280Z,16.65
2023-01-22T20:51:49.600Z,16.64
2023-01-22T20:54:19.344Z,16.61
2023-01-22T20:56:47.690Z,16.59
2023-01-22T20:59:20.759Z,16.57
2023-01-22T21:01:49.581Z,16.53
2023-01-22T21:04:19.767Z,16.49
2023-01-22T21:06:48.661Z,16.47
2023-01-22T21:09:17.029Z,16.43
2023-01-22T21:11:45.510Z,16.42
2023-01-22T21:14:18.708Z,16.38
2023-01-22T21:16:47.191Z,16.38
2023-01-22T21:19:20.608Z,16.36
2023-01-22T21:21:49.008Z,16.33
2023-01-22T21:24:18.087Z,16.31
2023-01-22T21:26:46.772Z,16.29
2023-01-22T21:29:18.230Z,16.27
2023-01-22T21:31:49.939Z,16.26
2023-01-22T21:34:20.825Z,16.24
2023-01-22T21:36:50.258Z,16.24
2023-01-22T21:39:22.290Z,16.22
2023-01-22T21:41:50.696Z,16.21
2023-01-22T21:44:39.339Z,16.21
2023-01-22T21:47:07.763Z,16.20
2023-01-22T21:49:37.046Z,16.18
2023-01-22T21:52:07.114Z,16.16
2023-01-22T21:54:38.795Z,16.16
2023-01-22T21:57:08.127Z,16.13
2023-01-22T21:59:39.154Z,16.12
2023-01-22T22:02:08.311Z,16.10
2023-01-22T22:04:36.935Z,16.08
2023-01-22T22:07:05.219Z,16.06
2023-01-22T22:09:33.488Z,16.05
2023-01-22T22:12:03.640Z,16.03
2023-01-22T22:14:32.308Z,16.02
2023-01-22T22:17:00.856Z,16.02
2023-01-22T22:19:29.820Z,16.02
2023-01-22T22:21:58.182Z,16.03
2023-01-22T22:24:26.557Z,16.04
2023-01-22T22:26:54.921Z,16.04
2023-01-22T22:29:23.245Z,16.04
2023-01-22T22:31:51.617Z,16.05
2023-01-22T22:34:19.982Z,16.03
2023-01-22T22:36:48.547Z,16.03
2023-01-22T22:39:16.841Z,16.02
2023-01-22T22:41:45.413Z,16.02
2023-01-22T22:44:15.917Z,16.00
2023-01-22T22:46:44.284Z,16.00
2023-01-22T22:49:14.611Z,15.99
2023-01-22T22:51:44.384Z,15.97
2023-01-22T22:54:18.066Z,15.96
2023-01-22T22:56:48.322Z,15.97
2023-01-22T22:59:20.594Z,15.96
2023-01-22T23:01:50.434Z,15.96
2023-01-22T23:04:18.865Z,15.94
2023-01-22T23:06:47.853Z,15.93
2023-01-22T23:09:20.458Z,15.93
2023-01-22T23:11:52.497Z,15.91
2023-01-22T23:14:21.002Z,15.90
2023-01-22T23:16:50.413Z,15.86
2023-01-22T23:19:25.366Z,15.84
2023-01-22T23:21:59.716Z,15.81
2023-01-22T23:24:28.750Z,15.77
2023-01-22T23:26:57.934Z,15.76
2023-01-22T23:29:27.787Z,15.74
2023-01-22T23:31:57.568Z,15.72
2023-01-22T23:34:25.994Z,15.70
2023-01-22T23:36:54.634Z,15.69
2023-01-22T23:39:23.241Z,15.67
2023-01-22T23:41:51.686Z,15.64
2023-01-22T23:44:20.031Z,15.64
2023-01-22T23:46:48.544Z,15.62
2023-01-22T23:49:16.855Z,15.61
2023-01-22T23:51:46.084Z,15.61
2023-01-22T23:54:14.622Z,15.60
2023-01-22T23:56:42.961Z,15.59
2023-01-22T23:59:12.405Z,15.59
